Tiempo atmosférico en la estación meteorológica de Belorado, Burgos (875 m.)



Fecha
DESCASC
Temp. máxima en grados centígrados (hora)
DESCASC
Temp. mínima en grados centígrados (hora)
DESCASC
Temp. media en grados centígrados
DESCASC
Racha de viento máxima en m/sg (hora)
DESCASC
Velocidad máxima media en intervalos de 10 minutos(hora)
DESCASC
Precipitaciones diarias en mm
DESCASC
Precipitaciones de 00:00 a 06:00 en mm
DESCASC
Precipitaciones de 06:00 a 12:00 en mm
DESCASC
Precipitaciones de 12:00 a 18:00 en mm
DESCASC
Precipitaciones de 18:00 a 24:00 en mm
DESCASC
23-05-2018 17.1 (16:50) 8.3 (01:40) 12.7 6.11 (17:20) 3.61 (14:00) 1.4 0 0 0.9 0.5
22-05-2018 21.5 (17:10) 7.7 (07:10) 14.6 6.67 (19:30) 3.61 (19:40) 0 0 0 0 0
21-05-2018 20 (13:20) 8.8 (07:20) 14.4 8.61 (21:00) 4.17 (17:40) 2.8 0.1 0 0.3 2.4
20-05-2018 20.9 (17:10) 4.9 (00:00) 12.9 8.33 (17:50) 4.44 (18:50) 0 0 0 0 0
19-05-2018 20 (15:50) 7.1 (00:00) 13.5 7.5 (15:30) 3.89 (13:00) 0 0 0 0 0
18-05-2018 17.8 (18:10) 8.5 (00:00) 13.1 6.11 (15:10) 3.33 (14:50) 0 0 0 0 0
17-05-2018 16.9 (15:30) 4.6 (00:00) 10.7 6.67 (15:00) 4.17 (14:50) 0 0 0 0 0
16-05-2018 13.5 (17:20) 3.3 (00:00) 8.4 6.67 (14:10) 4.17 (14:10) 0 0 0 0 0
15-05-2018 15.5 (15:30) 1 (00:00) 8.3 7.5 (15:10) 3.89 (16:30) 0 0 0 0 0
14-05-2018 13.9 (16:30) 3.3 (00:00) 8.6 8.33 (15:20) 5.28 (15:00) 2.2 2.1 0.1 0 0
13-05-2018 11.9 (16:20) 0.1 (00:00) 6 8.33 (13:00) 5 (10:50) 0.1 0.1 0 0 0
12-05-2018 12 (13:10) 2 (00:00) 7 9.17 (17:10) 5.83 (17:20) 3.1 0 1.5 0 1.6
11-05-2018 20.7 (16:50) 1.1 (06:10) 10.9 6.11 (17:00) 4.17 (15:10) 0 0 0 0 0
10-05-2018 14 (14:30) 4 (00:00) 9 7.78 (14:50) 4.72 (14:50) 0.7 0.6 0 0.1 0
09-05-2018 18.7 (16:30) 6.5 (00:00) 12.6 6.94 (19:10) 4.17 (19:50) 0.1 0 0 0 0.1
08-05-2018 17.7 (15:50) 9.1 (00:00) 13.4 7.22 (16:40) 4.17 (19:10) 0 0 0 0 0
07-05-2018 23 (16:30) 7.2 (00:00) 15.1 6.67 (15:00) 3.06 (14:50) 0 0 0 0 0
06-05-2018 21.6 (17:50) 4.6 (00:00) 13.1 6.67 (14:30) 4.17 (14:40) 0 0 0 0 0
05-05-2018 15.2 (17:20) 5 (00:00) 10.1 7.22 (14:40) 3.89 (18:30) 0 0 0 0 0
04-05-2018 9.5 (13:30) 3 (00:00) 6.3 9.17 (12:20) 5 (13:30) 0 0 0 0 0
03-05-2018 11.5 (16:00) 4.8 (00:00) 8.2 9.17 (13:30) 5.56 (16:10) 3.3 0 2.7 0 0.6
02-05-2018 14.4 (15:10) 3.4 (00:00) 8.9 10.83 (10:40) 5.28 (15:30) 0.3 0 0 0 0.3
01-05-2018 12.6 (18:40) 1.6 (03:50) 7.1 9.17 (11:00) 2.78 (20:10) 0 0 0 0 0
30-04-2018 9.8 (14:10) 2.4 (00:00) 6.1 13.06 (09:50) 5.83 (16:30) 1.1 0.4 0 0.7 0
29-04-2018 11 (13:40) 2.6 (00:00) 6.8 13.61 (17:50) 7.78 (17:50) 3 0 0.9 0.1 2
28-04-2018 10.5 (18:30) 5 (00:00) 7.8 9.72 (07:00) 3.33 (16:30) 4.7 3.3 0 0.5 0.9
27-04-2018 17.6 (14:50) 5.4 (00:00) 11.5 8.61 (16:20) 5.28 (16:30) 0 0 0 0 0
26-04-2018 14.8 (16:20) 6.7 (00:00) 10.8 6.67 (13:50) 4.17 (06:00) 0.4 0.2 0.2 0 0
25-04-2018 13.7 (00:00) 8.8 (00:00) 11.3 7.22 (17:50) 3.89 (18:00) 0.3 0 0 0 0.3
24-04-2018 21.8 (17:30) 8.9 (00:00) 15.3 7.22 (17:20) 4.44 (17:20) 0 0 0 0 0

Gráficas

Temp. máximas Temp. mínimas Temp. medias Precipitaciones Rachas de viento máximas Velocidades máximas media en intervalos de 10 minutos

Datos horarios

Fecha y hora oficial Temperatura (ºC) Velocidad del viento (km/h) Dirección del viento Racha (km/h) Dirección de racha Precipitación (mm) Presión (hPa) Tendencia (hPa) Humedad (%)
2018-05-23 23:00:00 13 3 Sur 8 Sur 0 -- -- 89
2018-05-23 22:00:00 13.3 2 Sur 6 Sur 0 -- -- 86
2018-05-23 21:00:00 14.3 0 Calma 10 Este 0 -- -- 82
2018-05-23 20:00:00 14.8 5 Norte 16 Norte 0 -- -- 79
2018-05-23 19:00:00 15.5 10 Este 17 Este 0 -- -- 71
2018-05-23 18:00:00 16.1 10 Este 22 Este 0 -- -- 72
2018-05-23 17:00:00 16.9 10 Este 16 Este 0 -- -- 72
2018-05-23 16:00:00 15.8 7 Este 17 Este 0 -- -- 75
2018-05-23 15:00:00 14.4 12 Este 18 Este 0 -- -- 78
2018-05-23 14:00:00 13.3 13 Este 19 Este 0.2 -- -- 80
2018-05-23 13:00:00 13.2 6 Este 11 Este 0.7 -- -- 78
2018-05-23 12:00:00 14 0 Calma 9 Oeste 0 -- -- 66
2018-05-23 11:00:00 13.2 0 Calma 6 Oeste 0 -- -- 69
2018-05-23 10:00:00 12.2 2 Norte 7 Norte 0 -- -- 74
2018-05-23 09:00:00 11.1 0 Calma 6 Sur 0 -- -- 80
2018-05-23 08:00:00 10.4 0 Calma 5 Sur 0 -- -- 81
2018-05-23 07:00:00 10.1 0 Calma 5 Sur 0 -- -- 81
2018-05-23 06:00:00 10.1 0 Calma 7 Sur 0 -- -- 80
2018-05-23 05:00:00 9.8 0 Calma 9 Sur 0 -- -- 79
2018-05-23 04:00:00 10.2 4 Este 10 Este 0 -- -- 79
2018-05-23 03:00:00 10.2 3 Sur 9 Sur 0 -- -- 78
2018-05-23 02:00:00 8.9 4 Sudoeste 10 Sur 0 -- -- 79
2018-05-23 01:00:00 9.2 2 Sur 6 Oeste 0 -- -- 74
2018-05-23 00:00:00 10.1 2 Sur 10 Este 0 -- -- 72
2018-05-22 23:00:00 10.3 6 Este 11 Nordeste 0 -- -- 72
2018-05-22 22:00:00 11.6 9 Este 12 Este 0 -- -- 66
2018-05-22 21:00:00 15.5 7 Nordeste 19 Norte 0 -- -- 52
2018-05-22 20:00:00 18.6 10 Nordeste 24 Este 0 -- -- 45
2018-05-22 19:00:00 20.6 10 Nordeste 20 Norte 0 -- -- 41
2018-05-22 18:00:00 21.1 8 Nordeste 19 Norte 0 -- -- 38
2018-05-22 17:00:00 21 9 Este 23 Este 0 -- -- 39
2018-05-22 16:00:00 20.8 8 Este 19 Este 0 -- -- 40
2018-05-22 15:00:00 19.8 6 Este 17 Norte 0 -- -- 40
2018-05-22 14:00:00 19 6 Este 16 Norte 0 -- -- 47
2018-05-22 13:00:00 17.8 4 Norte 19 Este 0 -- -- 56
2018-05-22 12:00:00 16.8 6 Nordeste 17 Norte 0 -- -- 64
2018-05-22 11:00:00 15.5 5 Nordeste 13 Norte 0 -- -- 70
2018-05-22 10:00:00 14.4 5 Nordeste 12 Norte 0 -- -- 79
2018-05-22 09:00:00 12.6 4 Norte 6 Sur 0 -- -- 89
2018-05-22 08:00:00 9.9 0 Calma 8 Sur 0 -- -- 91
2018-05-22 07:00:00 7.8 3 Sur 10 Sur 0 -- -- 91
2018-05-22 06:00:00 8.6 0 Calma 8 Sur 0 -- -- 91
2018-05-22 05:00:00 8.3 4 Sudoeste 8 Sur 0 -- -- 90
2018-05-22 04:00:00 8.1 3 Sudoeste 8 Sur 0 -- -- 90
2018-05-22 03:00:00 8.3 0 Calma 8 Sur 0 -- -- 88
2018-05-22 02:00:00 8.6 4 Sudoeste 8 Sur 0 -- -- 88
2018-05-22 01:00:00 9.5 0 Calma 9 Oeste 0 -- -- 88
2018-05-22 00:00:00 9.8 0 Calma 5 Oeste 0 -- -- 87
2018-05-21 23:00:00 10.2 0 Calma 15 Sur 0 -- -- 82
2018-05-21 22:00:00 12 3 Sudoeste 20 Norte 0 -- -- 76
2018-05-21 21:00:00 12.9 12 Sudeste 31 Este 0.2 -- -- 75
2018-05-21 20:00:00 13.2 2 Sudoeste 14 Oeste 1.3 -- -- 82
2018-05-21 19:00:00 14 6 Sur 21 Este 0.9 -- -- 76
2018-05-21 18:00:00 16.3 10 Nordeste 24 Norte 0 -- -- 57
2018-05-21 17:00:00 18.9 7 Noroeste 27 Sur 0.1 -- -- 48
2018-05-21 16:00:00 17.9 6 Sudoeste 16 Sur 0 -- -- 52
2018-05-21 15:00:00 18.2 9 Sur 25 Sur 0.2 -- -- 48
2018-05-21 14:00:00 17.6 7 Este 23 Este 0 -- -- 63
2018-05-21 13:00:00 19.1 12 Este 21 Sur 0 -- -- 60
2018-05-21 12:00:00 18.2 3 Nordeste 18 Norte 0 -- -- 66
2018-05-21 11:00:00 15.2 3 Norte 9 Norte 0 -- -- 73
2018-05-21 10:00:00 15.1 3 Nordeste 9 Oeste 0 -- -- 75
2018-05-21 09:00:00 13.2 0 Calma 5 Sur 0 -- -- 82
2018-05-21 08:00:00 10.4 0 Calma 8 Oeste 0 -- -- 86
2018-05-21 07:00:00 9 3 Sudoeste 8 Oeste 0 -- -- 86
2018-05-21 06:00:00 10.4 0 Calma 4 Oeste 0 -- -- 87
2018-05-21 05:00:00 11 0 Calma 5 Oeste 0 -- -- 86
2018-05-21 04:00:00 11.5 0 Calma 5 Oeste 0 -- -- 85
2018-05-21 03:00:00 11.8 0 Calma 7 Este 0.1 -- -- 83
2018-05-21 02:00:00 12 0 Calma 4 Sur 0 -- -- 79
2018-05-21 01:00:00 12.4 0 Calma 5 Sur 0 -- -- 77
2018-05-21 00:00:00 12.4 2 Noroeste 8 Este 0 -- -- 76
2018-05-20 23:00:00 13.4 5 Este 13 Este 0 -- -- 68
2018-05-20 22:00:00 14.4 9 Este 17 Este 0 -- -- 63
2018-05-20 21:00:00 15.9 7 Este 20 Norte 0 -- -- 58
2018-05-20 20:00:00 17.8 11 Nordeste 26 Norte 0 -- -- 52
2018-05-20 19:00:00 19.4 14 Norte 24 Norte 0 -- -- 43
2018-05-20 18:00:00 20.6 13 Norte 30 Norte 0 -- -- 38
2018-05-20 17:00:00 20.5 10 Norte 26 Norte 0 -- -- 38
2018-05-20 16:00:00 20.1 10 Norte 26 Norte 0 -- -- 39
2018-05-20 15:00:00 19.6 11 Nordeste 24 Este 0 -- -- 39
2018-05-20 14:00:00 18.6 9 Nordeste 21 Este 0 -- -- 42
2018-05-20 13:00:00 17.8 9 Nordeste 21 Este 0 -- -- 45
2018-05-20 12:00:00 15.8 9 Norte 18 Norte 0 -- -- 51
2018-05-20 11:00:00 13.8 8 Este 14 Este 0 -- -- 52
2018-05-20 10:00:00 12.3 7 Norte 12 Este 0 -- -- 58
2018-05-20 09:00:00 11.3 5 Este 9 Este 0 -- -- 72
2018-05-20 08:00:00 7.3 2 Sudeste 8 Sur 0 -- -- 84
2018-05-20 07:00:00 5.2 4 Sur 9 Oeste 0 -- -- 88
2018-05-20 06:00:00 5.4 4 Sudoeste 8 Sur 0 -- -- 87
2018-05-20 05:00:00 5.5 2 Sudoeste 9 Oeste 0 -- -- 86
2018-05-20 04:00:00 6 2 Sudoeste 8 Sur 0 -- -- 86
2018-05-20 03:00:00 6.8 0 Calma 7 Sur 0 -- -- 85
2018-05-20 02:00:00 6.6 0 Calma 7 Este 0 -- -- 83
2018-05-20 01:00:00 7.3 6 Este 9 Este 0 -- -- 82
2018-05-20 00:00:00 7.9 6 Este 9 Este 0 -- -- 81
2018-05-19 23:00:00 8.8 4 Este 12 Este 0 -- -- 77
2018-05-19 22:00:00 11 8 Este 15 Este 0 -- -- 69
2018-05-19 21:00:00 14.1 7 Nordeste 22 Norte 0 -- -- 56
2018-05-19 20:00:00 17.1 14 Norte 24 Este 0 -- -- 49
2018-05-19 19:00:00 18.3 12 Nordeste 24 Este 0 -- -- 46
2018-05-19 18:00:00 18.6 9 Nordeste 26 Norte 0 -- -- 46
2018-05-19 17:00:00 19.4 11 Nordeste 22 Nordeste 0 -- -- 48
2018-05-19 16:00:00 19.2 13 Nordeste 27 Norte 0 -- -- 50
2018-05-19 15:00:00 18.5 10 Norte 21 Norte 0 -- -- 52
2018-05-19 14:00:00 18 11 Nordeste 24 Norte 0 -- -- 52
2018-05-19 13:00:00 17 14 Norte 24 Norte 0 -- -- 60
2018-05-19 12:00:00 16.5 10 Nordeste 19 Norte 0 -- -- 64
2018-05-19 11:00:00 15 8 Este 14 Este 0 -- -- 66
2018-05-19 10:00:00 14 6 Este 10 Este 0 -- -- 72
2018-05-19 09:00:00 11.4 0 Calma 5 Sur 0 -- -- 89
2018-05-19 08:00:00 8.5 4 Sur 6 Sur 0 -- -- 91
2018-05-19 07:00:00 7.1 0 Calma 6 Oeste 0 -- -- 91
2018-05-19 06:00:00 7.7 0 Calma 6 Oeste 0 -- -- 91
2018-05-19 05:00:00 8.5 2 Sudoeste 5 Oeste 0 -- -- 91
2018-05-19 04:00:00 9.8 4 Este 11 Este 0 -- -- 91
2018-05-19 03:00:00 8.7 8 Este 10 Este 0 -- -- 89
2018-05-19 02:00:00 9 8 Este 12 Este 0 -- -- 88
2018-05-19 01:00:00 9.4 8 Este 12 Este 0 -- -- 86
2018-05-19 00:00:00 11 8 Este 9 Este 0 -- -- 85
2018-05-18 23:00:00 11.4 6 Este 13 Este 0 -- -- 83
2018-05-18 22:00:00 12.7 9 Nordeste 18 Norte 0 -- -- 74
2018-05-18 21:00:00 14.3 9 Nordeste 20 Norte 0 -- -- 67
2018-05-18 20:00:00 16.1 9 Nordeste 18 Norte 0 -- -- 60
2018-05-18 19:00:00 17.2 8 Nordeste 19 Norte 0 -- -- 58
2018-05-18 18:00:00 16.5 8 Nordeste 19 Este 0 -- -- 58
2018-05-18 17:00:00 16.4 9 Nordeste 20 Norte 0 -- -- 61
2018-05-18 16:00:00 16.3 11 Norte 22 Norte 0 -- -- 58
2018-05-18 15:00:00 15.7 12 Este 21 Norte 0 -- -- 63
2018-05-18 14:00:00 15 7 Nordeste 16 Este 0 -- -- 63
2018-05-18 13:00:00 14.8 8 Este 17 Este 0 -- -- 60
2018-05-18 12:00:00 13.3 8 Este 14 Este 0 -- -- 69
2018-05-18 11:00:00 12 4 Este 10 Este 0 -- -- 74
2018-05-18 10:00:00 10.7 4 Este 10 Norte 0 -- -- 86
2018-05-18 09:00:00 10.6 4 Este 8 Este 0 -- -- 89
2018-05-18 08:00:00 9.8 4 Este 7 Este 0 -- -- 90
2018-05-18 07:00:00 9.7 6 Este 9 Este 0 -- -- 89
2018-05-18 06:00:00 9.6 4 Este 8 Este 0 -- -- 89
2018-05-18 05:00:00 9.9 4 Este 5 Este 0 -- -- 90
2018-05-18 04:00:00 9.8 2 Este 9 Este 0 -- -- 90
2018-05-18 03:00:00 10 5 Este 10 Este 0 -- -- 90
2018-05-18 02:00:00 10 5 Nordeste 9 Norte 0 -- -- 90
2018-05-18 01:00:00 10 6 Este 10 Este 0 -- -- 90
2018-05-18 00:00:00 8.5 5 Este 9 Este 0 -- -- 88
2018-05-17 23:00:00 9.1 6 Este 9 Este 0 -- -- 87
2018-05-17 22:00:00 10 7 Este 11 Este 0 -- -- 85
2018-05-17 21:00:00 11.1 8 Este 15 Este 0 -- -- 81
2018-05-17 20:00:00 12.4 10 Este 22 Este 0 -- -- 75
2018-05-17 19:00:00 13.3 14 Este 21 Este 0 -- -- 70
2018-05-17 18:00:00 13.9 10 Este 17 Este 0 -- -- 67
2018-05-17 17:00:00 13.9 12 Este 18 Este 0 -- -- 65
2018-05-17 16:00:00 15.1 13 Este 23 Este 0 -- -- 58
2018-05-17 15:00:00 15.9 15 Este 24 Este 0 -- -- 58
2018-05-17 14:00:00 15.7 12 Este 21 Este 0 -- -- 60
2018-05-17 13:00:00 14.7 9 Nordeste 24 Norte 0 -- -- 64
2018-05-17 12:00:00 12.9 9 Norte 21 Norte 0 -- -- 70
2018-05-17 11:00:00 10.8 3 Nordeste 12 Este 0 -- -- 75
2018-05-17 10:00:00 9.1 5 Este 10 Este 0 -- -- 82
2018-05-17 09:00:00 8.1 6 Este 10 Este 0 -- -- 90
2018-05-17 08:00:00 7.2 3 Este 8 Este 0 -- -- 92
2018-05-17 07:00:00 5.3 7 Este 9 Este 0 -- -- 91
2018-05-17 06:00:00 5.2 4 Este 7 Este 0 -- -- 89
2018-05-17 05:00:00 6.9 5 Este 12 Este 0 -- -- 88
2018-05-17 04:00:00 8 5 Este 9 Este 0 -- -- 87
2018-05-17 03:00:00 8.3 6 Este 11 Este 0 -- -- 86
2018-05-17 02:00:00 8.5 6 Nordeste 11 Norte 0 -- -- 85
2018-05-17 01:00:00 8.9 8 Nordeste 15 Este 0 -- -- 82
2018-05-17 00:00:00 9.5 7 Este 12 Este 0 -- -- 82
2018-05-16 23:00:00 9.9 7 Este 16 Este 0 -- -- 81
2018-05-16 22:00:00 10.2 6 Este 15 Este 0 -- -- 79
2018-05-16 21:00:00 10.5 8 Este 19 Este 0 -- -- 77
2018-05-16 20:00:00 11.4 11 Este 20 Este 0 -- -- 74
2018-05-16 19:00:00 12.8 11 Norte 20 Este 0 -- -- 71
2018-05-16 18:00:00 13.1 10 Nordeste 21 Este 0 -- -- 70
2018-05-16 17:00:00 12.9 10 Nordeste 24 Norte 0 -- -- 70
2018-05-16 16:00:00 12.6 12 Nordeste 23 Este 0 -- -- 70
2018-05-16 15:00:00 12.2 13 Nordeste 24 Este 0 -- -- 71
2018-05-16 14:00:00 12.2 13 Este 21 Este 0 -- -- 71
2018-05-16 13:00:00 10.7 8 Nordeste 19 Este 0 -- -- 75
2018-05-16 12:00:00 10.1 10 Nordeste 21 Este 0 -- -- 74
2018-05-16 11:00:00 9.5 12 Este 21 Este 0 -- -- 76
2018-05-16 10:00:00 8.8 9 Este 18 Este 0 -- -- 76
2018-05-16 09:00:00 8.3 9 Este 16 Este 0 -- -- 80
2018-05-16 08:00:00 7.1 5 Este 8 Nordeste 0 -- -- 83
2018-05-16 07:00:00 6.4 5 Este 10 Este 0 -- -- 85
2018-05-16 06:00:00 5.7 6 Este 10 Este 0 -- -- 88
2018-05-16 05:00:00 5.3 6 Este 13 Este 0 -- -- 88
2018-05-16 04:00:00 5 5 Este 10 Este 0 -- -- 89
2018-05-16 03:00:00 3.5 6 Este 11 Este 0 -- -- 85
2018-05-16 02:00:00 3.5 7 Este 13 Este 0 -- -- 80
2018-05-16 01:00:00 4.2 8 Este 10 Este 0 -- -- 77
2018-05-16 00:00:00 5.2 7 Este 13 Este 0 -- -- 76
2018-05-15 23:00:00 6 8 Este 19 Este 0 -- -- 77
2018-05-15 22:00:00 7.9 11 Este 18 Este 0 -- -- 69
2018-05-15 21:00:00 10.2 11 Este 19 Nordeste 0 -- -- 61
2018-05-15 20:00:00 11.5 13 Este 22 Este 0 -- -- 57
2018-05-15 19:00:00 13.1 9 Nordeste 26 Este 0 -- -- 57
2018-05-15 18:00:00 12.8 10 Nordeste 25 Norte 0 -- -- 56
2018-05-15 17:00:00 13.3 12 Nordeste 24 Este 0 -- -- 55
2018-05-15 16:00:00 13.8 11 Nordeste 27 Este 0 -- -- 51
2018-05-15 15:00:00 14.6 12 Nordeste 24 Norte 0 -- -- 48
2018-05-15 14:00:00 13.4 6 Nordeste 22 Este 0 -- -- 49
2018-05-15 13:00:00 12.2 9 Nordeste 21 Este 0 -- -- 51
2018-05-15 12:00:00 10.7 10 Este 20 Este 0 -- -- 48
2018-05-15 11:00:00 10 6 Este 14 Norte 0 -- -- 46
2018-05-15 10:00:00 9.5 3 Este 10 Este 0 -- -- 48
2018-05-15 09:00:00 7.3 0 Calma 7 Sur 0 -- -- 68
2018-05-15 08:00:00 3.9 0 Calma 9 Sur 0 -- -- 76
2018-05-15 07:00:00 1 3 Sur 7 Sur 0 -- -- 82
2018-05-15 06:00:00 2.5 3 Sudeste 10 Este 0 -- -- 82
2018-05-15 05:00:00 2.8 6 Este 8 Este 0 -- -- 82
2018-05-15 04:00:00 2 0 Calma 7 Sur 0 -- -- 77
2018-05-15 03:00:00 2.5 4 Sudeste 9 Este 0 -- -- 79
2018-05-15 02:00:00 2.9 6 Este 9 Este 0 -- -- 82
2018-05-15 01:00:00 2.8 0 Calma 9 Este 0 -- -- 83
2018-05-15 00:00:00 3.5 6 Este 10 Este 0 -- -- 82
2018-05-14 23:00:00 3.8 5 Este 11 Este 0 -- -- 80
2018-05-14 22:00:00 4.8 6 Este 14 Nordeste 0 -- -- 71
2018-05-14 21:00:00 7 11 Este 23 Norte 0 -- -- 61
2018-05-14 20:00:00 9.2 12 Este 25 Este 0 -- -- 60
2018-05-14 19:00:00 10.5 13 Nordeste 26 Norte 0 -- -- 57
2018-05-14 18:00:00 11.4 14 Nordeste 27 Este 0 -- -- 53
2018-05-14 17:00:00 12.2 11 Norte 25 Norte 0 -- -- 50
2018-05-14 16:00:00 13.2 9 Norte 30 Norte 0 -- -- 46
2018-05-14 15:00:00 13.6 19 Norte 29 Norte 0 -- -- 46
2018-05-14 14:00:00 11.4 13 Norte 28 Norte 0 -- -- 58
2018-05-14 13:00:00 11.9 15 Norte 24 Norte 0 -- -- 60
2018-05-14 12:00:00 10.3 13 Noroeste 27 Norte 0 -- -- 68
2018-05-14 11:00:00 8.9 5 Oeste 12 Oeste 0 -- -- 70
2018-05-14 10:00:00 7.4 6 Oeste 13 Oeste 0 -- -- 79
2018-05-14 09:00:00 6.9 4 Sudoeste 12 Sur 0 -- -- 80
2018-05-14 08:00:00 5.8 0 Calma 9 Oeste 0 -- -- 88
2018-05-14 07:00:00 5.4 3 Sudoeste 8 Oeste 0.1 -- -- 88
2018-05-14 06:00:00 5.3 2 Sudoeste 7 Oeste 0.2 -- -- 88
2018-05-14 05:00:00 5.4 2 Oeste 4 Sur 0.5 -- -- 88
2018-05-14 04:00:00 5.6 0 Calma 8 Oeste 0.7 -- -- 86
2018-05-14 03:00:00 5.6 3 Oeste 10 Sur 0.2 -- -- 86
2018-05-14 02:00:00 5.6 2 Sudoeste 7 Sur 0.5 -- -- 86
2018-05-14 01:00:00 5.9 5 Oeste 14 Norte 0 -- -- 79
2018-05-11 20:00:00 17.7 6 Este 9 Este 0 -- -- 57
2018-05-11 19:00:00 18.5 4 Este 14 Este 0 -- -- 55
2018-05-11 18:00:00 19.2 5 Este 19 Este 0 -- -- 53
2018-05-11 17:00:00 20 7 Este 22 Este 0 -- -- 50
2018-05-11 16:00:00 18.7 11 Este 21 Este 0 -- -- 54
2018-05-11 15:00:00 18.9 13 Este 21 Este 0 -- -- 54
2018-05-11 14:00:00 18.5 12 Este 19 Este 0 -- -- 53
2018-05-11 13:00:00 17.7 11 Este 16 Este 0 -- -- 54
2018-05-11 12:00:00 15.4 7 Este 17 Este 0 -- -- 58
2018-05-11 11:00:00 12.7 3 Norte 10 Norte 0 -- -- 61
2018-05-11 10:00:00 10 4 Norte 7 Norte 0 -- -- 74
2018-05-11 09:00:00 7.2 2 Oeste 5 Oeste 0 -- -- 78
2018-05-11 08:00:00 4.1 0 Calma 8 Oeste 0 -- -- 86
2018-05-11 07:00:00 1.5 3 Sudoeste 8 Sur 0 -- -- 87
2018-05-11 06:00:00 1.2 0 Calma 5 Sur 0 -- -- 86
2018-05-11 05:00:00 2.4 0 Calma 8 Oeste 0 -- -- 85
2018-05-11 04:00:00 2.3 0 Calma 9 Oeste 0 -- -- 85
2018-05-11 03:00:00 2.2 2 Sudoeste 11 Sur 0 -- -- 85
2018-05-11 02:00:00 2.5 3 Sudoeste 9 Oeste 0 -- -- 83
2018-05-11 01:00:00 2.9 3 Sudoeste 8 Oeste 0 -- -- 79
2018-05-11 00:00:00 4.1 2 Sur 7 Sur 0 -- -- 77
2018-05-10 23:00:00 4.6 5 Este 9 Este 0 -- -- 76
2018-05-10 22:00:00 6.2 6 Este 13 Este 0 -- -- 73
2018-05-10 21:00:00 8.8 9 Este 18 Este 0 -- -- 60
2018-05-10 20:00:00 12.1 9 Nordeste 21 Este 0 -- -- 52
2018-05-10 19:00:00 12.8 14 Este 22 Este 0 -- -- 51
2018-05-10 18:00:00 13.7 10 Este 22 Este 0 -- -- 51
2018-05-10 17:00:00 12.7 10 Este 20 Este 0 -- -- 54
2018-05-10 16:00:00 12.7 9 Nordeste 28 Este 0 -- -- 55
2018-05-10 15:00:00 13.5 16 Este 28 Este 0 -- -- 57
2018-05-10 14:00:00 12.3 15 Este 26 Este 0 -- -- 62
2018-05-10 13:00:00 11.2 12 Este 21 Este 0.1 -- -- 76
2018-05-10 12:00:00 9.8 14 Nordeste 24 Norte 0 -- -- 80
2018-05-10 11:00:00 10.6 9 Norte 14 Norte 0 -- -- 71
2018-05-10 10:00:00 10.4 6 Nordeste 16 Este 0 -- -- 71
2018-05-10 09:00:00 8.6 4 Este 9 Este 0 -- -- 83
2018-05-10 08:00:00 7.7 8 Este 10 Este 0 -- -- 91
2018-05-10 07:00:00 7.4 4 Este 13 Este 0 -- -- 92
2018-05-10 06:00:00 7.3 8 Este 15 Nordeste 0 -- -- 92
2018-05-10 05:00:00 7.6 7 Nordeste 17 Este 0 -- -- 92
2018-05-10 04:00:00 8.1 9 Este 16 Este 0 -- -- 92
2018-05-10 03:00:00 8.4 9 Este 14 Este 0 -- -- 92
2018-05-10 02:00:00 8.5 8 Este 17 Este 0 -- -- 92
2018-05-10 01:00:00 8.6 10 Este 20 Norte 0.6 -- -- 92
2018-05-10 00:00:00 8.8 11 Nordeste 20 Norte 0.1 -- -- 91
2018-05-09 23:00:00 9.7 10 Este 22 Norte 0 -- -- 89
2018-05-09 22:00:00 10.4 11 Este 21 Este 0 -- -- 86
2018-05-09 21:00:00 11.1 12 Nordeste 24 Norte 0 -- -- 82
2018-05-09 20:00:00 12.6 15 Norte 25 Norte 0 -- -- 72
2018-05-09 19:00:00 14.9 12 Nordeste 22 Este 0 -- -- 63
2018-05-09 18:00:00 17.3 9 Nordeste 21 Norte 0 -- -- 56
2018-05-09 17:00:00 17.7 5 Nordeste 23 Este 0 -- -- 52
2018-05-09 16:00:00 17.7 4 Nordeste 21 Norte 0 -- -- 55
2018-05-09 15:00:00 16.8 9 Norte 19 Este 0 -- -- 59
2018-05-09 14:00:00 15 10 Norte 19 Norte 0 -- -- 63
2018-05-09 13:00:00 14.4 8 Nordeste 20 Norte 0 -- -- 66
2018-05-09 12:00:00 12.9 9 Este 18 Este 0 -- -- 69
2018-05-09 11:00:00 11 4 Nordeste 16 Este 0 -- -- 76
2018-05-09 10:00:00 10 8 Este 15 Este 0 -- -- 79
2018-05-09 09:00:00 9.6 5 Nordeste 13 Este 0 -- -- 83
2018-05-09 08:00:00 8.4 2 Sudeste 10 Este 0 -- -- 89
2018-05-09 07:00:00 7.3 5 Sudeste 11 Sur 0 -- -- 89
2018-05-09 06:00:00 7.5 8 Este 14 Este 0 -- -- 90
2018-05-09 05:00:00 8 8 Este 15 Este 0 -- -- 91
2018-05-09 04:00:00 8.4 9 Este 15 Este 0 -- -- 92
2018-05-09 03:00:00 8.8 8 Nordeste 15 Este 0 -- -- 92
2018-05-09 02:00:00 9.4 6 Nordeste 15 Este 0 -- -- 92
2018-05-09 01:00:00 9.9 9 Este 13 Este 0 -- -- 92
2018-05-09 00:00:00 10 9 Este 14 Este 0 -- -- 91
2018-05-08 23:00:00 9.6 10 Este 12 Este 0 -- -- 88
2018-05-08 22:00:00 11.3 8 Este 13 Este 0 -- -- 87
2018-05-08 21:00:00 11.8 9 Este 16 Este 0 -- -- 85
2018-05-08 20:00:00 12.1 10 Este 24 Norte 0 -- -- 85
2018-05-08 19:00:00 14.2 11 Norte 22 Este 0 -- -- 75
2018-05-08 18:00:00 15.3 15 Este 24 Este 0 -- -- 71
2018-05-08 17:00:00 15.6 12 Nordeste 26 Norte 0 -- -- 70
2018-05-08 16:00:00 16.7 9 Nordeste 18 Este 0 -- -- 69
2018-05-08 15:00:00 15.8 10 Este 20 Este 0 -- -- 74
2018-05-08 14:00:00 15.6 9 Nordeste 18 Este 0 -- -- 77
2018-05-08 13:00:00 13.9 9 Este 17 Este 0 -- -- 79
2018-05-08 12:00:00 13.9 9 Este 18 Este 0 -- -- 79
2018-05-08 11:00:00 13.6 11 Este 19 Este 0 -- -- 82
2018-05-08 10:00:00 14.3 12 Este 17 Este 0 -- -- 84
2018-05-08 09:00:00 13.6 8 Este 13 Este 0 -- -- 87
2018-05-08 08:00:00 12.4 5 Este 7 Este 0 -- -- 89
2018-05-08 07:00:00 10.9 0 Calma 6 Sur 0 -- -- 89
2018-05-08 06:00:00 10.1 3 Sudoeste 8 Oeste 0 -- -- 89
2018-05-08 05:00:00 10.1 2 Sur 9 Oeste 0 -- -- 87
2018-05-08 04:00:00 11.1 0 Calma 8 Oeste 0 -- -- 86
2018-05-08 03:00:00 11.9 4 Sudoeste 9 Oeste 0 -- -- 85
2018-05-08 02:00:00 12.8 0 Calma 6 Oeste 0 -- -- 83
2018-05-08 01:00:00 13.2 0 Calma 6 Este 0 -- -- 83
2018-05-08 00:00:00 13.3 3 Sudeste 6 Este 0 -- -- 82
2018-05-07 23:00:00 13.2 7 Este 10 Este 0 -- -- 82
2018-05-07 22:00:00 15 7 Este 12 Este 0 -- -- 76
2018-05-07 21:00:00 17.4 6 Este 11 Este 0 -- -- 70
2018-05-07 20:00:00 18.8 7 Este 14 Este 0 -- -- 64
2018-05-07 19:00:00 19.1 4 Este 10 Este 0 -- -- 60
2018-05-07 18:00:00 20.6 7 Este 14 Este 0 -- -- 55
2018-05-07 17:00:00 20.6 7 Nordeste 19 Norte 0 -- -- 51
2018-05-07 16:00:00 22.5 7 Nordeste 22 Norte 0 -- -- 47
2018-05-07 15:00:00 21.8 9 Nordeste 24 Este 0 -- -- 49
2018-05-07 14:00:00 21 9 Norte 16 Norte 0 -- -- 50
2018-05-07 13:00:00 20.9 5 Este 16 Este 0 -- -- 53
2018-05-07 12:00:00 20.1 4 Nordeste 14 Este 0 -- -- 56
2018-05-07 11:00:00 18.6 2 Noroeste 7 Este 0 -- -- 57
2018-05-07 10:00:00 16.8 3 Este 7 Este 0 -- -- 60
2018-05-07 09:00:00 13.4 0 Calma 8 Oeste 0 -- -- 70
2018-05-07 08:00:00 9.3 2 Sur 11 Sur 0 -- -- 76
2018-05-07 07:00:00 7.6 4 Sudoeste 13 Sur 0 -- -- 77
2018-05-07 06:00:00 7.7 2 Sudoeste 13 Oeste 0 -- -- 76
2018-05-07 05:00:00 8.1 5 Sudoeste 12 Sur 0 -- -- 76
2018-05-07 04:00:00 8.6 5 Sudoeste 13 Sur 0 -- -- 74
2018-05-07 03:00:00 9 3 Sudoeste 10 Oeste 0 -- -- 74
2018-05-07 02:00:00 10.1 2 Sur 8 Oeste 0 -- -- 74
2018-05-07 01:00:00 10.4 2 Sudoeste 9 Sur 0 -- -- 75
2018-05-07 00:00:00 11.4 4 Sudoeste 8 Oeste 0 -- -- 74
2018-05-06 23:00:00 12.4 4 Sudoeste 9 Oeste 0 -- -- 69
2018-05-06 22:00:00 13 4 Este 15 Norte 0 -- -- 68
2018-05-06 21:00:00 15.6 8 Este 10 Este 0 -- -- 52
2018-05-06 20:00:00 19.8 6 Este 13 Este 0 -- -- 46
2018-05-06 19:00:00 20.1 10 Este 16 Este 0 -- -- 42
2018-05-06 18:00:00 21 9 Este 22 Este 0 -- -- 43
2018-05-06 17:00:00 21 10 Nordeste 21 Norte 0 -- -- 45
2018-05-06 16:00:00 20.5 11 Nordeste 20 Este 0 -- -- 50
2018-05-06 15:00:00 19.4 14 Este 24 Este 0 -- -- 53
2018-05-06 14:00:00 19 13 Este 20 Este 0 -- -- 53
2018-05-06 13:00:00 18 9 Este 18 Este 0 -- -- 60
2018-05-06 12:00:00 16.3 5 Norte 14 Norte 0 -- -- 61
2018-05-06 11:00:00 14.2 6 Norte 10 Norte 0 -- -- 65
2018-05-06 10:00:00 12.4 2 Norte 7 Norte 0 -- -- 66
2018-05-06 09:00:00 10.2 0 Calma 6 Sur 0 -- -- 83
2018-05-06 08:00:00 6.7 2 Sudoeste 6 Oeste 0 -- -- 89
2018-05-06 07:00:00 4.9 3 Sudoeste 10 Sur 0 -- -- 89
2018-05-06 06:00:00 4.8 3 Sudoeste 10 Sur 0 -- -- 89
2018-05-06 05:00:00 5 4 Sudoeste 8 Sur 0 -- -- 89
2018-05-06 04:00:00 5.3 2 Sudoeste 7 Sur 0 -- -- 88
2018-05-06 03:00:00 5.9 4 Sudoeste 9 Oeste 0 -- -- 88
2018-05-06 02:00:00 6.9 3 Este 9 Este 0 -- -- 88
2018-05-06 01:00:00 6.9 7 Este 10 Este 0 -- -- 86
2018-05-06 00:00:00 7.3 6 Este 9 Este 0 -- -- 85
2018-05-05 23:00:00 7.9 6 Este 9 Este 0 -- -- 84
2018-05-05 22:00:00 8.5 5 Este 10 Nordeste 0 -- -- 82
2018-05-05 21:00:00 10.7 6 Nordeste 16 Norte 0 -- -- 73
2018-05-05 20:00:00 13.2 8 Nordeste 22 Norte 0 -- -- 64
2018-05-05 19:00:00 14.4 13 Norte 22 Norte 0 -- -- 61
2018-05-05 18:00:00 14 11 Nordeste 22 Este 0 -- -- 61
2018-05-05 17:00:00 14.2 10 Este 21 Norte 0 -- -- 60
2018-05-05 16:00:00 14 10 Nordeste 20 Este 0 -- -- 61
2018-05-05 15:00:00 13.4 10 Este 26 Este 0 -- -- 63
2018-05-05 14:00:00 13.5 14 Este 24 Este 0 -- -- 61
2018-05-05 13:00:00 13.5 14 Este 25 Este 0 -- -- 62
2018-05-05 12:00:00 12.3 12 Este 21 Este 0 -- -- 65
2018-05-05 11:00:00 10.5 8 Nordeste 15 Este 0 -- -- 73
2018-05-05 10:00:00 8.4 9 Este 16 Este 0 -- -- 79
2018-05-05 09:00:00 6.7 7 Este 10 Este 0 -- -- 85
2018-05-05 08:00:00 5.8 5 Este 7 Este 0 -- -- 88
2018-05-05 07:00:00 5.7 3 Este 10 Este 0 -- -- 86
2018-05-05 06:00:00 5.5 5 Este 10 Este 0 -- -- 86
2018-05-05 05:00:00 5.5 4 Este 10 Este 0 -- -- 87
2018-05-05 04:00:00 5.6 6 Este 12 Este 0 -- -- 87
2018-05-05 03:00:00 5.4 8 Este 11 Nordeste 0 -- -- 87
2018-05-05 02:00:00 5.3 8 Este 15 Este 0 -- -- 88
2018-05-05 01:00:00 5.1 5 Este 9 Este 0 -- -- 86
2018-05-05 00:00:00 5.5 5 Este 10 Este 0 -- -- 85
2018-05-04 23:00:00 5.9 8 Este 16 Nordeste 0 -- -- 84
2018-05-04 22:00:00 6.8 8 Este 14 Este 0 -- -- 81
2018-05-04 21:00:00 7 8 Nordeste 19 Norte 0 -- -- 79
2018-05-04 20:00:00 7 9 Este 25 Este 0 -- -- 79
2018-05-04 19:00:00 7.3 13 Nordeste 32 Norte 0 -- -- 77
2018-05-04 18:00:00 7.9 16 Nordeste 29 Norte 0 -- -- 74
2018-05-04 17:00:00 8.6 12 Nordeste 27 Norte 0 -- -- 74
2018-05-04 16:00:00 8.8 16 Norte 30 Norte 0 -- -- 72
2018-05-04 15:00:00 8.8 15 Norte 30 Este 0 -- -- 71
2018-05-04 14:00:00 8.9 14 Nordeste 27 Este 0 -- -- 71
2018-05-04 13:00:00 8.3 16 Nordeste 33 Norte 0 -- -- 72
2018-05-04 12:00:00 7.9 12 Nordeste 25 Norte 0 -- -- 78
2018-05-04 11:00:00 7.1 13 Este 24 Nordeste 0 -- -- 82
2018-05-04 10:00:00 5.6 13 Este 19 Este 0 -- -- 84
2018-05-04 09:00:00 4.9 7 Este 12 Este 0 -- -- 87
2018-05-04 08:00:00 4.2 7 Este 16 Este 0 -- -- 87
2018-05-04 07:00:00 3.9 7 Este 15 Este 0 -- -- 89
2018-05-04 06:00:00 4 8 Este 13 Este 0 -- -- 88
2018-05-04 05:00:00 4 8 Este 15 Este 0 -- -- 86
2018-05-04 04:00:00 4.2 10 Este 17 Este 0 -- -- 87
2018-05-04 03:00:00 3.6 8 Este 15 Este 0 -- -- 88
2018-05-04 02:00:00 3.5 11 Nordeste 20 Este 0 -- -- 85
2018-05-04 01:00:00 4.5 10 Este 19 Este 0 -- -- 83
2018-05-04 00:00:00 4.8 11 Este 20 Este 0 -- -- 83
2018-05-03 23:00:00 4.9 11 Este 22 Este 0 -- -- 83
2018-05-03 22:00:00 5.2 8 Nordeste 21 Este 0.6 -- -- 85
2018-05-03 21:00:00 6.1 10 Este 19 Norte 0 -- -- 71
2018-05-03 20:00:00 6.9 10 Norte 25 Norte 0 -- -- 65
2018-05-03 19:00:00 7.8 14 Norte 27 Norte 0 -- -- 60
2018-05-03 18:00:00 8.7 12 Nordeste 29 Norte 0 -- -- 57
2018-05-03 17:00:00 9.8 18 Norte 30 Norte 0 -- -- 54
2018-05-03 16:00:00 10.5 18 Norte 31 Norte 0 -- -- 57
2018-05-03 15:00:00 9.4 12 Norte 23 Norte 0 -- -- 58
2018-05-03 14:00:00 10.2 12 Norte 33 Norte 0 -- -- 55
2018-05-03 13:00:00 8.5 17 Norte 27 Norte 0 -- -- 69
2018-05-03 12:00:00 8.4 10 Norte 27 Norte 0 -- -- 57
2018-05-03 11:00:00 7.2 17 Norte 30 Norte 0 -- -- 61
2018-05-03 10:00:00 6.1 15 Norte 30 Norte 0.1 -- -- 73
2018-05-03 09:00:00 5.5 13 Norte 23 Norte 0 -- -- 82
2018-05-03 08:00:00 5.9 8 Norte 18 Norte 0.6 -- -- 92
2018-05-03 07:00:00 6.1 11 Norte 21 Norte 2 -- -- 90
2018-05-03 06:00:00 6.8 7 Oeste 10 Oeste 0 -- -- 86
2018-05-03 05:00:00 7.5 6 Oeste 17 Oeste 0 -- -- 86
2018-05-03 04:00:00 8 9 Noroeste 25 Norte 0 -- -- 86
2018-05-03 03:00:00 9 8 Oeste 14 Oeste 0 -- -- 86
2018-05-03 02:00:00 9.5 7 Oeste 13 Oeste 0 -- -- 82
2018-05-03 01:00:00 9.7 5 Oeste 12 Oeste 0 -- -- 82
2018-05-03 00:00:00 9.9 6 Oeste 15 Oeste 0 -- -- 83
2018-05-02 23:00:00 9.7 4 Sur 9 Sur 0.1 -- -- 85
2018-05-02 22:00:00 10 2 Noroeste 11 Norte 0.2 -- -- 83
2018-05-02 21:00:00 10.8 4 Norte 10 Norte 0 -- -- 73
2018-05-02 20:00:00 11.5 3 Norte 16 Oeste 0 -- -- 69
2018-05-02 19:00:00 11.4 12 Oeste 18 Oeste 0 -- -- 59
2018-05-02 18:00:00 12.2 13 Oeste 24 Oeste 0 -- -- 54
2018-05-02 17:00:00 12.6 15 Oeste 26 Oeste 0 -- -- 52
2018-05-02 16:00:00 12.9 17 Oeste 27 Oeste 0 -- -- 52
2018-05-02 15:00:00 13.8 12 Oeste 24 Oeste 0 -- -- 48
2018-05-02 14:00:00 13.1 9 Oeste 27 Oeste 0 -- -- 46
2018-05-02 13:00:00 11.4 10 Sudoeste 32 Oeste 0 -- -- 47
2018-05-02 12:00:00 11.5 13 Oeste 35 Oeste 0 -- -- 45
2018-05-02 11:00:00 9.6 19 Oeste 39 Oeste 0 -- -- 44
2018-05-02 10:00:00 8.7 9 Sudoeste 25 Oeste 0 -- -- 46
2018-05-02 09:00:00 7.8 10 Sudoeste 32 Sur 0 -- -- 46
2018-05-02 08:00:00 7.6 6 Sudoeste 17 Oeste 0 -- -- 55
2018-05-02 07:00:00 7 5 Sudoeste 19 Sur 0 -- -- 54
2018-05-02 06:00:00 7.7 8 Sudoeste 24 Oeste 0 -- -- 51
2018-05-02 05:00:00 6.8 4 Sudoeste 16 Sur 0 -- -- 57
2018-05-02 04:00:00 3.7 2 Noroeste 5 Norte 0 -- -- 75
2018-05-02 03:00:00 3.9 0 Calma 13 Este 0 -- -- 70
2018-05-02 02:00:00 5.3 0 Calma 6 Sur 0 -- -- 63
2018-05-02 01:00:00 5.6 2 Sudoeste 10 Oeste 0 -- -- 60
2018-05-02 00:00:00 5.7 3 Sudoeste 8 Sudoeste 0 -- -- 60
2018-05-01 23:00:00 5.9 3 Oeste 10 Sur 0 -- -- 60
2018-05-01 22:00:00 6.3 3 Sudoeste 11 Oeste 0 -- -- 64
2018-05-01 21:00:00 7.3 4 Este 12 Este 0 -- -- 64
2018-05-01 20:00:00 10.2 9 Este 12 Este 0 -- -- 48
2018-05-01 19:00:00 12 4 Nordeste 14 Oeste 0 -- -- 40
2018-05-01 18:00:00 12.2 7 Norte 14 Norte 0 -- -- 40
2018-05-01 17:00:00 11.7 7 Noroeste 18 Oeste 0 -- -- 40
2018-05-01 16:00:00 10.6 0 Calma 10 Sur 0 -- -- 44
2018-05-01 15:00:00 9.9 4 Este 13 Oeste 0 -- -- 51
2018-05-01 14:00:00 8.4 3 Nordeste 11 Norte 0 -- -- 55
2018-05-01 13:00:00 7.4 3 Noroeste 12 Este 0 -- -- 56
2018-05-01 12:00:00 7.4 4 Noroeste 14 Norte 0 -- -- 55
2018-05-01 11:00:00 6.6 6 Noroeste 33 Norte 0 -- -- 64
2018-05-01 10:00:00 5.1 6 Norte 13 Norte 0 -- -- 70
2018-05-01 09:00:00 4.3 3 Norte 6 Norte 0 -- -- 79
2018-05-01 08:00:00 2.7 0 Calma 5 Oeste 0 -- -- 85
2018-05-01 07:00:00 2.4 0 Calma 8 Oeste 0 -- -- 85
2018-05-01 06:00:00 2.8 5 Oeste 11 Oeste 0 -- -- 85
2018-05-01 05:00:00 2.2 3 Sur 7 Sur 0 -- -- 86
2018-05-01 04:00:00 1.6 0 Calma 7 Oeste 0 -- -- 85
2018-05-01 03:00:00 1.9 2 Oeste 7 Oeste 0 -- -- 82
2018-05-01 02:00:00 3.8 0 Calma 7 Oeste 0 -- -- 82
2018-05-01 01:00:00 3.9 0 Calma 6 Oeste 0 -- -- 83
2018-05-01 00:00:00 3.6 0 Calma 6 Sur 0 -- -- 84
2018-04-30 23:00:00 3.3 4 Oeste 10 Oeste 0 -- -- 82
2018-04-30 22:00:00 4.2 5 Oeste 18 Norte 0 -- -- 79
2018-04-30 21:00:00 5 8 Norte 22 Norte 0 -- -- 75
2018-04-30 20:00:00 6.2 12 Norte 21 Norte 0 -- -- 70
2018-04-30 19:00:00 7.4 8 Norte 19 Norte 0 -- -- 69
2018-04-30 18:00:00 5.6 4 Oeste 22 Oeste 0.7 -- -- 72
2018-04-30 17:00:00 6.6 6 Oeste 33 Oeste 0 -- -- 66
2018-04-30 16:00:00 8.3 10 Oeste 37 Sudoeste 0 -- -- 52
2018-04-30 15:00:00 8.5 8 Oeste 34 Oeste 0 -- -- 49
2018-04-30 14:00:00 9.5 7 Sudoeste 30 Sudoeste 0 -- -- 48
2018-04-30 13:00:00 8.2 8 Sudoeste 35 Sur 0 -- -- 55
2018-04-30 12:00:00 7.1 10 Sudoeste 32 Oeste 0 -- -- 55
2018-04-30 11:00:00 6.1 14 Oeste 40 Oeste 0 -- -- 58
2018-04-30 10:00:00 5.1 13 Sudoeste 47 Oeste 0 -- -- 64
2018-04-30 09:00:00 3.9 12 Sudoeste 32 Oeste 0 -- -- 67
2018-04-30 08:00:00 3.2 12 Sudoeste 34 Oeste 0 -- -- 72
2018-04-30 07:00:00 2.5 10 Sudoeste 39 Sur 0 -- -- 75
2018-04-30 06:00:00 2.4 9 Sudoeste 32 Sur 0 -- -- 74
2018-04-30 05:00:00 3 11 Sudoeste 36 Sur 0 -- -- 74
2018-04-30 04:00:00 2.9 12 Sudoeste 35 Oeste 0 -- -- 75
2018-04-30 03:00:00 3.3 10 Sudoeste 31 Oeste 0 -- -- 76
2018-04-30 02:00:00 3.5 10 Sudoeste 31 Sudoeste 0 -- -- 76
2018-04-30 01:00:00 3.9 9 Sudoeste 37 Sur 0.4 -- -- 79
2018-04-30 00:00:00 4.1 13 Sudoeste 43 Sur 0.1 -- -- 79
2018-04-29 23:00:00 4.4 4 Sudoeste 35 Sur 0.9 -- -- 79
2018-04-29 22:00:00 4.6 3 Sudoeste 27 Sur 0 -- -- 75
2018-04-29 21:00:00 5.9 9 Sur 29 Sur 0 -- -- 73
2018-04-29 20:00:00 6.9 5 Sudoeste 28 Sur 0.2 -- -- 73
2018-04-29 19:00:00 5.9 9 Sudoeste 44 Sur 0.8 -- -- 76
2018-04-29 18:00:00 6.9 18 Oeste 49 Oeste 0.1 -- -- 66
2018-04-29 17:00:00 10.3 10 Sudoeste 39 Sur 0 -- -- 60
2018-04-29 16:00:00 10.2 13 Sudoeste 32 Oeste 0 -- -- 60
2018-04-29 15:00:00 7.2 12 Sudoeste 43 Oeste 0 -- -- 69
2018-04-29 14:00:00 9.2 14 Sudoeste 38 Sur 0 -- -- 57
2018-04-29 13:00:00 9.7 19 Oeste 32 Oeste 0 -- -- 58
2018-04-29 12:00:00 8.7 16 Oeste 26 Oeste 0.9 -- -- 68
2018-04-29 11:00:00 7.6 0 Calma 10 Oeste 0 -- -- 78
2018-04-29 10:00:00 5.9 7 Norte 11 Norte 0 -- -- 90
2018-04-29 09:00:00 5.2 5 Nordeste 9 Norte 0 -- -- 91
2018-04-29 08:00:00 3.9 0 Calma 8 Sur 0 -- -- 91
2018-04-29 07:00:00 3 0 Calma 5 Sur 0 -- -- 91
2018-04-29 06:00:00 2.9 2 Sudeste 9 Sur 0 -- -- 91
2018-04-29 05:00:00 4.2 4 Sudoeste 10 Sur 0 -- -- 92
2018-04-29 04:00:00 4.8 0 Calma 9 Este 0 -- -- 92
2018-04-29 03:00:00 4.8 0 Calma 6 Sur 0 -- -- 92
2018-04-29 02:00:00 4.1 0 Calma 8 Oeste 0 -- -- 92
2018-04-29 01:00:00 6 6 Este 14 Este 0 -- -- 92
2018-04-29 00:00:00 6.8 8 Este 15 Este 0 -- -- 90
2018-04-28 23:00:00 7.9 0 Calma 13 Sur 0.1 -- -- 82
2018-04-28 22:00:00 8.1 3 Sudoeste 17 Oeste 0.3 -- -- 85
2018-04-28 21:00:00 8.6 10 Este 19 Este 0.1 -- -- 91
2018-04-28 20:00:00 9.9 5 Este 11 Este 0.1 -- -- 88
2018-04-28 19:00:00 10.1 6 Este 11 Este 0.3 -- -- 86
2018-04-28 18:00:00 9.9 9 Este 15 Este 0.2 -- -- 87
2018-04-28 17:00:00 10.1 7 Este 18 Este 0.1 -- -- 85
2018-04-28 16:00:00 10.3 6 Este 13 Este 0.2 -- -- 85
2018-04-28 15:00:00 9 6 Norte 14 Norte 0 -- -- 88
2018-04-28 14:00:00 8.4 10 Norte 15 Este 0 -- -- 91
2018-04-28 13:00:00 7.7 5 Nordeste 16 Este 0 -- -- 92
2018-04-28 12:00:00 6.8 9 Este 15 Este 0 -- -- 92
2018-04-28 11:00:00 6.2 7 Este 14 Norte 0 -- -- 92
2018-04-28 10:00:00 5.7 7 Nordeste 14 Norte 0 -- -- 92
2018-04-28 09:00:00 5.4 7 Nordeste 14 Este 0 -- -- 92
2018-04-28 08:00:00 5.1 8 Este 15 Este 0 -- -- 92
2018-04-28 07:00:00 5.1 8 Nordeste 35 Este 0 -- -- 92
2018-04-28 06:00:00 5.1 6 Nordeste 16 Este 0 -- -- 92
2018-04-28 05:00:00 5.1 8 Este 14 Este 0 -- -- 92
2018-04-28 04:00:00 5.4 8 Este 14 Este 0.4 -- -- 92
2018-04-28 03:00:00 5.3 5 Este 15 Este 2 -- -- 92
2018-04-28 02:00:00 5.3 9 Este 14 Este 0.7 -- -- 91
2018-04-28 01:00:00 5.4 9 Este 15 Norte 0.2 -- -- 91
2018-04-28 00:00:00 5.6 9 Este 19 Norte 0 -- -- 91
2018-04-27 23:00:00 5.9 10 Nordeste 19 Este 0 -- -- 89
2018-04-27 22:00:00 6.5 9 Nordeste 19 Norte 0 -- -- 86
2018-04-27 21:00:00 6.9 11 Este 21 Este 0 -- -- 85
2018-04-27 20:00:00 8.1 12 Este 23 Este 0 -- -- 81
2018-04-27 19:00:00 9.6 12 Nordeste 24 Este 0 -- -- 78
2018-04-27 18:00:00 11.6 12 Nordeste 27 Norte 0 -- -- 72
2018-04-27 17:00:00 12.8 16 Nordeste 31 Norte 0 -- -- 69
2018-04-27 16:00:00 16.4 10 Nordeste 23 Este 0 -- -- 54
2018-04-27 15:00:00 17.1 8 Nordeste 22 Norte 0 -- -- 51
2018-04-27 14:00:00 16.7 11 Este 27 Este 0 -- -- 56
2018-04-27 13:00:00 15.6 14 Este 22 Este 0 -- -- 58
2018-04-27 12:00:00 14.6 9 Este 17 Este 0 -- -- 60
2018-04-27 11:00:00 13.1 10 Este 17 Este 0 -- -- 64
2018-04-27 10:00:00 12.6 11 Este 16 Este 0 -- -- 69
2018-04-27 09:00:00 11.2 8 Este 10 Este 0 -- -- 85
2018-04-27 08:00:00 9.5 3 Este 13 Este 0 -- -- 88
2018-04-27 07:00:00 8.6 4 Norte 14 Este 0 -- -- 85
2018-04-27 06:00:00 11.2 3 Sudeste 17 Oeste 0 -- -- 82
2018-04-27 05:00:00 12.4 10 Oeste 21 Sur 0 -- -- 79
2018-04-27 04:00:00 8.9 3 Este 12 Oeste 0 -- -- 86
2018-04-27 03:00:00 7.9 2 Sur 5 Oeste 0 -- -- 85
2018-04-27 02:00:00 7.2 2 Sudoeste 5 Oeste 0 -- -- 85
2018-04-27 01:00:00 6.8 0 Calma 7 Sudoeste 0 -- -- 83
2018-04-27 00:00:00 7.1 3 Sudoeste 7 Oeste 0 -- -- 81
2018-04-26 23:00:00 7.6 3 Sudoeste 6 Oeste 0 -- -- 78
2018-04-26 22:00:00 8.6 4 Este 7 Este 0 -- -- 78
2018-04-26 21:00:00 10.5 6 Este 11 Este 0 -- -- 68
2018-04-26 20:00:00 13.2 7 Este 15 Este 0 -- -- 58
2018-04-26 19:00:00 14.1 10 Este 19 Este 0 -- -- 57
2018-04-26 18:00:00 14.2 9 Nordeste 20 Este 0 -- -- 58
2018-04-26 17:00:00 14.4 10 Nordeste 22 Este 0 -- -- 57
2018-04-26 16:00:00 14 9 Nordeste 22 Este 0 -- -- 58
2018-04-26 15:00:00 12.9 9 Nordeste 24 Este 0 -- -- 58
2018-04-26 14:00:00 12.3 13 Este 24 Este 0 -- -- 61
2018-04-26 13:00:00 11.5 12 Este 22 Este 0 -- -- 65
2018-04-26 12:00:00 9.8 9 Nordeste 22 Este 0 -- -- 68
2018-04-26 11:00:00 8.4 11 Nordeste 19 Norte 0 -- -- 78
2018-04-26 10:00:00 7.4 12 Nordeste 19 Este 0 -- -- 88
2018-04-26 09:00:00 6.8 10 Nordeste 19 Nordeste 0 -- -- 92
2018-04-26 08:00:00 6.8 9 Este 17 Este 0 -- -- 92
2018-04-26 07:00:00 6.8 11 Este 22 Norte 0.2 -- -- 92
2018-04-26 06:00:00 7 15 Norte 22 Norte 0.1 -- -- 92
2018-04-26 05:00:00 7.6 9 Nordeste 15 Este 0 -- -- 92
2018-04-26 04:00:00 8.1 7 Este 17 Nordeste 0 -- -- 92
2018-04-26 03:00:00 8.1 7 Nordeste 16 Este 0 -- -- 92
2018-04-26 02:00:00 8.5 8 Este 13 Este 0 -- -- 92
2018-04-26 01:00:00 8.7 9 Este 15 Norte 0.1 -- -- 91
2018-04-26 00:00:00 8.9 5 Nordeste 16 Este 0 -- -- 91
2018-04-25 23:00:00 8.9 5 Este 14 Este 0 -- -- 91
2018-04-25 22:00:00 9.1 8 Este 15 Este 0 -- -- 91
2018-04-25 21:00:00 9 9 Este 17 Este 0.1 -- -- 91
2018-04-25 20:00:00 9.1 13 Este 23 Este 0.2 -- -- 90
2018-04-25 19:00:00 9.4 12 Norte 25 Norte 0 -- -- 90
2018-04-25 18:00:00 10.4 14 Norte 26 Este 0 -- -- 89
2018-04-25 17:00:00 11.3 11 Norte 21 Este 0 -- -- 89
2018-04-25 16:00:00 12.2 11 Nordeste 21 Norte 0 -- -- 82
2018-04-25 15:00:00 12.8 11 Nordeste 19 Norte 0 -- -- 80
2018-04-25 14:00:00 13.1 8 Este 13 Este 0 -- -- 82
2018-04-25 13:00:00 12.1 7 Nordeste 14 Norte 0 -- -- 90
2018-04-25 12:00:00 12.1 8 Este 15 Norte 0 -- -- 92
2018-04-25 11:00:00 11.4 8 Norte 14 Este 0 -- -- 92
2018-04-25 10:00:00 11.3 7 Este 15 Este 0 -- -- 92
2018-04-25 09:00:00 11.2 7 Nordeste 14 Este 0 -- -- 92
2018-04-25 08:00:00 11.3 7 Este 12 Este 0 -- -- 92
2018-04-25 07:00:00 11.4 4 Este 10 Este 0 -- -- 92
2018-04-25 06:00:00 11.4 6 Este 14 Este 0 -- -- 92
2018-04-25 05:00:00 11.6 6 Este 14 Este 0 -- -- 91
2018-04-25 04:00:00 10.2 8 Este 9 Este 0 -- -- 88
2018-04-25 03:00:00 10.5 0 Calma 8 Sur 0 -- -- 82
2018-04-25 02:00:00 11.4 0 Calma 8 Este 0 -- -- 81
2018-04-25 01:00:00 12.7 3 Este 8 Norte 0 -- -- 76
2018-04-25 00:00:00 13.7 3 Este 11 Sur 0 -- -- 73
2018-04-24 23:00:00 14.1 3 Sudoeste 9 Oeste 0 -- -- 72
2018-04-24 22:00:00 15.2 3 Sudeste 12 Este 0 -- -- 68
2018-04-24 21:00:00 16.8 12 Este 18 Este 0 -- -- 60
2018-04-24 20:00:00 19.2 13 Este 19 Este 0 -- -- 55
2018-04-24 19:00:00 20.2 10 Este 21 Este 0 -- -- 57
2018-04-24 18:00:00 21.7 14 Este 26 Este 0 -- -- 52
2018-04-24 17:00:00 21.2 14 Este 21 Este 0 -- -- 55
2018-04-24 16:00:00 20.2 12 Este 21 Este 0 -- -- 60
2018-04-24 15:00:00 19.1 10 Este 20 Este 0 -- -- 64
2018-04-24 14:00:00 17.8 5 Nordeste 14 Este 0 -- -- 68
2018-04-24 13:00:00 14.7 6 Este 13 Este 0 -- -- 83
2018-04-24 12:00:00 13.2 4 Nordeste 12 Este 0 -- -- 89
2018-04-24 11:00:00 11.6 6 Este 12 Este 0 -- -- 92
2018-04-24 10:00:00 11.2 0 Calma 7 Este 0 -- -- 92
2018-04-24 09:00:00 10.5 0 Calma 6 Sur 0 -- -- 92
2018-04-24 08:00:00 9.1 2 Sudoeste 8 Sur 0 -- -- 92
2018-04-24 07:00:00 9 2 Sudoeste 8 Sur 0 -- -- 91
2018-04-24 06:00:00 9.3 2 Sudoeste 9 Oeste 0 -- -- 92
2018-04-24 05:00:00 9.5 2 Sudoeste 9 Oeste 0 -- -- 92
2018-04-24 04:00:00 9.6 4 Sudoeste 9 Oeste 0 -- -- 92
2018-04-24 03:00:00 11.1 0 Calma 6 Este 0 -- -- 92
2018-04-24 02:00:00 10.9 0 Calma 7 Este 0 -- -- 91
2018-04-24 01:00:00 9.8 5 Este 7 Nordeste 0 -- -- 91
2018-04-24 00:00:00 10.8 4 Este 8 Este 0 -- -- 89